AirNav   TITAN Aviation Fuels
 
 457 users online  

42PN Allegheny General Hospital Emergency Heliport
Pittsburgh, Pennsylvania, USA

GOING TO PITTSBURGH?


FAA INFORMATION EFFECTIVE 15 JULY 2021

Location

FAA Identifier: 42PN
Lat/Long: 40-27-22.6336N 080-00-14.9962W
40-27.377227N 080-00.249937W
40.4562871,-80.0041656
(estimated)
Elevation: 804.1 ft. / 245.1 m (surveyed)
Variation: 09W (2020)
From city: 3 miles S of PITTSBURGH, PA
Time zone: UTC -4 (UTC -5 during Standard Time)
Zip code: 15212

Heliport Operations

Heliport use: Private use, MEDICAL USE.
Control tower: no
ARTCC: CLEVELAND CENTER
FSS: ALTOONA FLIGHT SERVICE STATION
Attendance: CONTINUOUS
Wind indicator: lighted
Segmented circle: no
Lights: SS-SR

Heliport Communications

UNICOM: 123.05
WX AWOS-A: PHONE 412-442-2213
WX ASOS at AGC (7 nm SE): 120.55 (412-466-8968)
WX ASOS at PIT (11 nm W): PHONE 412-472-0145
WX AWOS-3 at FWQ (17 nm SE): 118.475 (724-379-5815)
WX AWOS-3PT at BTP (19 nm N): 121.450 (724-586-6434)

Nearby radio navigation aids

VOR radial/distance  VOR name  Freq  Var
AGCr018/10.8ALLEGHENY VOR/DME110.0009W
EWCr165/24.0ELLWOOD CITY VOR/DME115.8008W
HLGr072/28.4WHEELING VOR/DME112.2007W

 
NDB name  Hdg/Dist  Freq  Var  ID
CASTLE160/38.827209WUCP ..- -.-. .--.

Heliport Services

Runway Information

Helipad H1

Dimensions: 65 x 65 ft. / 20 x 20 m
Surface: concrete, in good condition
Runway edge lights: PERI
AND DRCTN LGTS.
Operational restrictions: HELIPAD ELEVATED ABOVE ALL OBSTACLES.
Latitude: 40-27.377227N
Longitude: 080-00.249937W
Elevation: 804.1 ft.
Traffic pattern: leftleft
Markings: basic
Obstructions: 55 ft. trees, 369 ft. from runway, 34 ft. right of centerline, 6:1 slope to clear

Heliport Ownership and Management from official FAA records

Ownership: Privately-owned
Owner: ALLEGHENY GENERAL HOSPITAL
320 E NORTH AVENUE
PITTSBURGH, PA 15212
Phone 412-359-3555
Manager: JAMES PALAFOUTAS
320 E NORTH AVENUE
PITTSBURGH, PA 15212
Phone 412-359-3555

Additional Remarks

FOR CD CTC PITTSBURGH APCH AT 412-472-5591

Instrument Procedures

There are no published instrument procedures at 42PN.

Some nearby airports with instrument procedures:

KAGC - Allegheny County Airport (7 nm SE)
KPIT - Pittsburgh International Airport (11 nm W)
G05 - Finleyville Airpark (13 nm S)
KFWQ - Rostraver Airport (17 nm SE)
KBTP - Pittsburgh/Butler Regional Airport (19 nm N)
 
Loc | Ops | Rwys | IFR | FBO | Links
Com | Nav | Svcs | Stats | Notes
Area around 42PN (Allegheny General Hospital Emergency Heliport)
 
Road maps at: MapQuest Bing Google
 
Aerial photo
No photo
 
Sectional chart

 
Airport distance calculator
Flying to Allegheny General Hospital Emergency Heliport? Find the distance to fly.

From to 42PN

Sunrise and sunset
Times for 31-Jul-2021
 Local
(UTC-4)
 Zulu
(UTC)
Morning civil twilight05:4709:47
Sunrise06:1710:17
Sunset20:3500:35
Evening civil twilight21:0601:06

Current date and time
Zulu (UTC)  31-Jul-2021 06:52:41
Local (UTC-4)  31-Jul-2021 02:52:41
 
METAR
KAGC 
8nm SE 
310553Z AUTO 33003KT 10SM CLR 16/12 A3007 RMK AO2 SLP180 T01610117 10222 20161 50005
KPIT 
12nm W 
310551Z 00000KT 10SM BKN220 17/11 A3007 RMK AO2 SLP183 T01670111 10222 20156 50004
KP53 
17nm SE 
310556Z AUTO 20009KT 16/12 A2998 RMK AO1 SLP151 T01610117 10183 20144 56026
KBTP 
19nm N 
310556Z AUTO 00000KT 10SM CLR 12/11 A3008 RMK AO2 SLP186 T01220111 10200 20117 50003
TAF
KAGC 
8nm SE 
310520Z 3106/0106 35006KT P6SM BKN250 FM311300 VRB05KT P6SM SKC
KPIT 
12nm W 
310520Z 3106/0112 35006KT P6SM BKN250 FM311300 VRB05KT P6SM SKC
NOTAMs
Click for the latest NOTAMs
NOTAMs are issued by the DoD/FAA and will open in a separate window not controlled by AirNav.

 

 
 

Would you like to see your business listed on this page?

 If your business provides an interesting product or service to pilots, flight crews, aircraft, or users of the Allegheny General Hospital Emergency Heliport, you should consider listing it here.  To start the listing process, click on the button below
 
Add a business
 

Other Pages about Allegheny General Hospital Emergency Heliport

Update a link
 
Copyright © AirNav, LLC. All rights reserved. Privacy Policy  Contact